Time;durP1;ratioP1;P1;durP2;ratioP2;P2;SDS_P1;SDS_P2;PMS_P1;PMS_P2;Temp;Humidity;BMP_temperature;BMP_pressure;BME280_temperature;BME280_humidity;BME280_pressure;Samples;Min_cycle;Max_cycle;Signal;HPM_P1;HPM_P2
2022/04/12 00:01:03;;;;;;;5.07;2.13;;;12.80;74.70;;;;;;5056662;28;20845;-74
2022/04/12 00:03:32;;;;;;;2.17;1.97;;;12.90;75.00;;;;;;5047525;28;20464;-74
2022/04/12 00:06:01;;;;;;;2.50;2.30;;;12.90;75.20;;;;;;5052859;28;20430;-74
2022/04/12 00:08:30;;;;;;;2.50;2.23;;;12.90;75.10;;;;;;5036310;28;20958;-73
2022/04/12 00:10:58;;;;;;;2.40;2.10;;;12.90;74.90;;;;;;5042586;28;20451;-74
2022/04/12 00:13:26;;;;;;;3.00;2.00;;;12.80;74.70;;;;;;5054704;28;20501;-74
2022/04/12 00:15:56;;;;;;;1.93;1.83;;;12.90;74.50;;;;;;5041882;28;20456;-73
2022/04/12 00:21:09;;;;;;;2.20;2.00;;;12.80;75.00;;;;;;5039410;28;20530;-73
2022/04/12 00:23:39;;;;;;;2.40;1.77;;;12.80;74.80;;;;;;5031532;28;20472;-73
2022/04/12 00:26:07;;;;;;;2.70;2.10;;;12.80;74.50;;;;;;5027969;28;20425;-74
2022/04/12 00:28:36;;;;;;;2.50;2.20;;;12.80;74.60;;;;;;5054261;28;20445;-73
2022/04/12 00:31:04;;;;;;;2.70;2.50;;;12.80;74.60;;;;;;5052864;28;20934;-74
2022/04/12 00:33:32;;;;;;;2.60;2.40;;;12.80;74.80;;;;;;5034549;28;20487;-74
2022/04/12 00:36:02;;;;;;;1.90;1.80;;;12.80;74.80;;;;;;5044867;28;20437;-73
2022/04/12 00:38:33;;;;;;;2.50;1.83;;;12.80;74.90;;;;;;5041773;28;20993;-73
2022/04/12 00:41:05;;;;;;;2.50;2.30;;;12.80;75.20;;;;;;5031980;28;20894;-74
2022/04/12 00:43:36;;;;;;;2.20;2.03;;;12.80;75.20;;;;;;5052595;28;20456;-74
2022/04/12 00:46:04;;;;;;;2.40;1.93;;;12.80;74.90;;;;;;5050919;28;20796;-73
2022/04/12 00:48:34;;;;;;;2.33;2.13;;;12.80;74.90;;;;;;5026910;28;20510;-74
2022/04/12 00:51:02;;;;;;;2.00;1.90;;;12.80;75.00;;;;;;5047122;28;20437;-73
2022/04/12 00:53:31;;;;;;;2.03;1.80;;;12.80;75.40;;;;;;5032997;28;20465;-74
2022/04/12 00:56:01;;;;;;;2.13;1.93;;;12.80;75.70;;;;;;5020273;28;20451;-74
2022/04/12 00:58:30;;;;;;;2.27;2.07;;;12.80;75.70;;;;;;5048739;28;20434;-73
2022/04/12 01:00:58;;;;;;;2.00;1.90;;;12.80;75.60;;;;;;5043777;28;20452;-73
2022/04/12 01:03:26;;;;;;;1.60;1.50;;;12.80;75.80;;;;;;5048369;28;20983;-73
2022/04/12 01:05:56;;;;;;;2.10;1.90;;;12.80;75.70;;;;;;5045903;28;20467;-73
2022/04/12 01:08:24;;;;;;;2.00;1.80;;;12.80;75.60;;;;;;5035274;28;20488;-74
2022/04/12 01:10:53;;;;;;;2.40;2.20;;;12.80;75.90;;;;;;5041963;28;20444;-74
2022/04/12 01:13:22;;;;;;;2.70;2.10;;;12.80;76.20;;;;;;5041979;28;20456;-73
2022/04/12 01:15:51;;;;;;;1.27;1.10;;;12.80;76.20;;;;;;5047475;28;20577;-73
2022/04/12 01:18:19;;;;;;;2.10;1.50;;;12.80;76.40;;;;;;5029293;28;20449;-73
2022/04/12 01:20:47;;;;;;;2.00;1.73;;;12.80;76.20;;;;;;5044598;28;20524;-73
2022/04/12 01:23:19;;;;;;;1.80;1.70;;;12.80;76.50;;;;;;5037894;28;20500;-73
2022/04/12 01:25:49;;;;;;;2.20;2.00;;;12.80;76.60;;;;;;5042237;28;20467;-73
2022/04/12 01:28:17;;;;;;;1.63;1.50;;;12.80;76.60;;;;;;5045134;28;20444;-74
2022/04/12 01:30:45;;;;;;;2.30;2.10;;;12.80;76.60;;;;;;5047678;28;20877;-74
2022/04/12 01:33:13;;;;;;;1.90;1.70;;;12.80;76.50;;;;;;5032069;28;20467;-73
2022/04/12 01:35:41;;;;;;;2.50;2.23;;;12.80;76.60;;;;;;5048573;28;20529;-74
2022/04/12 01:38:09;;;;;;;2.00;1.80;;;12.80;76.80;;;;;;5046316;28;20848;-74
2022/04/12 01:40:38;;;;;;;1.90;1.80;;;12.80;77.10;;;;;;5041629;28;20938;-73
2022/04/12 01:43:08;;;;;;;1.90;1.80;;;12.80;77.40;;;;;;5046765;28;20517;-75
2022/04/12 01:45:36;;;;;;;1.67;1.57;;;12.80;77.20;;;;;;5048238;28;20540;-74
2022/04/12 01:48:07;;;;;;;3.03;2.13;;;12.80;77.20;;;;;;5014120;28;20445;-73
2022/04/12 01:50:35;;;;;;;2.47;1.37;;;12.80;77.20;;;;;;5034071;28;20913;-73
2022/04/12 01:53:03;;;;;;;2.13;1.77;;;12.80;77.50;;;;;;5035280;28;20456;-73
2022/04/12 01:55:31;;;;;;;1.57;1.47;;;12.80;78.20;;;;;;5035370;28;20814;-74
2022/04/12 01:57:59;;;;;;;1.67;1.57;;;12.80;77.30;;;;;;5048236;28;20426;-74
2022/04/12 02:00:29;;;;;;;1.73;1.17;;;12.80;77.20;;;;;;5033809;28;20464;-74
2022/04/12 02:02:57;;;;;;;2.03;1.83;;;12.80;77.70;;;;;;5020731;28;20463;-73
2022/04/12 02:05:25;;;;;;;4.40;2.00;;;12.80;77.40;;;;;;5037568;28;20560;-73
2022/04/12 02:07:53;;;;;;;2.30;1.97;;;12.80;77.00;;;;;;5042699;28;20489;-74
2022/04/12 02:10:22;;;;;;;2.70;1.63;;;12.80;77.00;;;;;;5027128;28;20475;-74
2022/04/12 02:12:51;;;;;;;2.43;2.23;;;12.80;77.20;;;;;;5051478;28;20435;-74
2022/04/12 02:15:19;;;;;;;3.70;2.20;;;12.70;77.00;;;;;;5037114;28;20474;-74
2022/04/12 02:17:48;;;;;;;2.00;1.80;;;12.70;77.20;;;;;;5031262;28;20502;-73
2022/04/12 02:20:16;;;;;;;1.80;1.50;;;12.70;77.10;;;;;;5038471;28;20973;-73
2022/04/12 02:22:45;;;;;;;2.10;2.00;;;12.70;77.70;;;;;;5048061;28;20432;-74
2022/04/12 02:25:13;;;;;;;2.47;2.10;;;12.70;77.30;;;;;;5032756;28;21059;-73
2022/04/12 02:27:41;;;;;;;2.70;2.37;;;12.70;77.20;;;;;;5040677;28;20538;-73
2022/04/12 02:30:10;;;;;;;1.93;1.80;;;12.70;77.30;;;;;;5045734;28;20471;-73
2022/04/12 02:32:38;;;;;;;2.17;1.93;;;12.70;77.50;;;;;;5028242;28;20440;-73
2022/04/12 02:35:09;;;;;;;2.33;1.83;;;12.70;77.40;;;;;;5045003;28;20471;-74
2022/04/12 02:37:37;;;;;;;2.00;1.80;;;12.70;77.60;;;;;;5049989;28;20435;-73
2022/04/12 02:40:07;;;;;;;2.10;1.70;;;12.70;77.70;;;;;;5020921;28;20472;-73
2022/04/12 02:42:35;;;;;;;2.93;2.43;;;12.70;77.30;;;;;;5040413;28;20468;-73
2022/04/12 02:45:04;;;;;;;2.20;2.00;;;12.70;77.70;;;;;;5046570;28;20471;-73
2022/04/12 02:47:32;;;;;;;2.40;2.20;;;12.70;77.80;;;;;;5029755;28;20453;-74
2022/04/12 02:50:00;;;;;;;2.47;1.97;;;12.70;78.80;;;;;;5036674;28;20513;-73
2022/04/12 02:52:29;;;;;;;1.90;1.73;;;12.70;77.70;;;;;;5050811;28;20988;-73
2022/04/12 02:54:57;;;;;;;2.20;1.93;;;12.70;77.60;;;;;;5017306;28;20937;-75
2022/04/12 02:57:25;;;;;;;2.83;2.03;;;12.70;77.80;;;;;;5046426;28;20589;-73
2022/04/12 02:59:53;;;;;;;2.97;2.73;;;12.70;77.80;;;;;;5047292;28;20473;-74
2022/04/12 03:02:21;;;;;;;2.57;2.37;;;12.70;77.90;;;;;;5024578;28;20950;-73
2022/04/12 03:04:50;;;;;;;1.73;1.63;;;12.70;77.30;;;;;;5030524;28;20564;-73
2022/04/12 03:07:18;;;;;;;1.70;1.60;;;12.70;78.00;;;;;;5045639;28;20432;-73
2022/04/12 03:09:47;;;;;;;1.83;1.73;;;12.70;77.80;;;;;;5023278;28;20476;-73
2022/04/12 03:12:15;;;;;;;2.40;2.20;;;12.70;78.20;;;;;;5044436;28;20423;-73
2022/04/12 03:14:43;;;;;;;2.97;2.67;;;12.70;77.80;;;;;;5039437;28;20507;-74
2022/04/12 03:17:16;;;;;;;2.67;2.47;;;12.70;77.20;;;;;;5032758;28;20778;-74
2022/04/12 03:19:44;;;;;;;2.63;2.23;;;12.60;77.70;;;;;;5046988;28;20832;-74
2022/04/12 03:22:12;;;;;;;2.27;2.07;;;12.70;78.20;;;;;;5037771;28;20456;-74
2022/04/12 03:24:40;;;;;;;2.30;2.07;;;12.70;78.10;;;;;;5023214;28;20497;-74
2022/04/12 03:27:09;;;;;;;2.57;2.20;;;12.70;77.80;;;;;;5050112;28;20546;-73
2022/04/12 03:29:38;;;;;;;3.43;2.30;;;12.60;78.00;;;;;;5034264;28;21089;-74
2022/04/12 03:32:09;;;;;;;2.40;2.20;;;12.60;77.70;;;;;;5028191;28;20430;-73
2022/04/12 03:34:39;;;;;;;3.53;1.97;;;12.60;77.70;;;;;;5030719;28;20472;-73
2022/04/12 03:37:07;;;;;;;2.97;2.07;;;12.60;77.60;;;;;;5050208;28;20489;-73
2022/04/12 03:39:35;;;;;;;2.13;2.00;;;12.60;77.80;;;;;;5021367;28;20465;-73
2022/04/12 03:42:04;;;;;;;2.67;2.30;;;12.60;77.80;;;;;;5048166;28;20518;-74
2022/04/12 03:44:34;;;;;;;3.07;2.20;;;12.60;78.30;;;;;;5031003;28;20468;-74
2022/04/12 03:47:02;;;;;;;2.87;2.67;;;12.60;78.40;;;;;;5044060;28;20436;-73
2022/04/12 03:49:30;;;;;;;3.40;2.30;;;12.60;77.50;;;;;;5034711;28;20464;-73
2022/04/12 03:51:58;;;;;;;3.30;2.73;;;12.60;78.00;;;;;;5033480;28;20966;-73
2022/04/12 03:54:26;;;;;;;2.63;2.43;;;12.60;78.20;;;;;;5035506;28;20516;-74
2022/04/12 03:56:55;;;;;;;2.40;2.00;;;12.60;78.30;;;;;;5033588;28;20493;-74
2022/04/12 03:59:23;;;;;;;2.60;2.40;;;12.60;78.50;;;;;;5049601;28;20471;-74
2022/04/12 04:01:53;;;;;;;2.50;2.30;;;12.60;78.70;;;;;;5033502;28;20982;-73
2022/04/12 04:04:21;;;;;;;2.53;2.07;;;12.60;78.00;;;;;;5027522;28;20464;-74
2022/04/12 04:06:49;;;;;;;1.57;1.47;;;12.60;78.30;;;;;;5048682;28;20439;-74
2022/04/12 04:09:17;;;;;;;2.20;1.77;;;12.60;78.70;;;;;;5041042;28;21063;-73
2022/04/12 04:11:45;;;;;;;2.07;1.60;;;12.60;78.70;;;;;;5048849;28;20525;-74
2022/04/12 04:14:15;;;;;;;2.00;1.80;;;12.60;79.10;;;;;;5050196;28;20451;-74
2022/04/12 04:16:43;;;;;;;1.60;1.50;;;12.60;79.20;;;;;;5047110;28;20427;-75
2022/04/12 04:19:12;;;;;;;1.60;1.50;;;12.60;79.30;;;;;;5031943;28;20472;-74
2022/04/12 04:21:40;;;;;;;1.57;1.47;;;12.60;79.50;;;;;;5048134;28;20546;-73
2022/04/12 04:24:09;;;;;;;1.90;1.70;;;12.60;79.70;;;;;;5034929;28;20532;-74
2022/04/12 04:26:38;;;;;;;2.83;1.90;;;12.60;79.80;;;;;;5048526;28;20865;-73
2022/04/12 04:29:06;;;;;;;1.87;1.77;;;12.60;79.50;;;;;;5030200;28;20487;-73
2022/04/12 04:31:34;;;;;;;1.83;1.73;;;12.60;79.50;;;;;;5036362;28;20495;-73
2022/04/12 04:34:03;;;;;;;1.83;1.37;;;12.60;79.80;;;;;;5036303;28;20467;-73
2022/04/12 04:36:32;;;;;;;3.20;2.60;;;12.60;80.00;;;;;;5042890;28;20496;-74
2022/04/12 04:39:01;;;;;;;1.70;1.60;;;12.60;79.50;;;;;;5034679;28;20452;-74
2022/04/12 04:41:29;;;;;;;1.90;1.80;;;12.60;79.20;;;;;;5045777;28;20438;-73
2022/04/12 04:43:57;;;;;;;3.07;2.87;;;12.60;79.90;;;;;;5021793;28;20992;-73
2022/04/12 04:46:25;;;;;;;2.40;2.20;;;12.60;79.30;;;;;;5051917;28;20439;-74
2022/04/12 04:48:54;;;;;;;1.87;1.73;;;12.60;79.40;;;;;;5037258;28;20502;-74
2022/04/12 04:51:22;;;;;;;2.00;1.87;;;12.50;80.70;;;;;;5053090;28;20501;-74
2022/04/12 04:53:58;;;;;;;3.90;2.13;;;12.50;79.40;;;;;;5032411;28;20826;-74
2022/04/12 04:56:26;;;;;;;2.27;2.07;;;12.50;79.10;;;;;;5045788;28;20444;-74
2022/04/12 04:58:55;;;;;;;2.07;1.87;;;12.50;79.30;;;;;;5044297;28;21051;-73
2022/04/12 05:01:23;;;;;;;2.40;2.00;;;12.50;79.40;;;;;;5030734;28;20445;-73
2022/04/12 05:03:51;;;;;;;2.03;1.70;;;12.50;79.40;;;;;;5026464;28;20467;-73
2022/04/12 05:06:21;;;;;;;2.10;1.90;;;12.50;79.70;;;;;;5040734;28;20505;-73
2022/04/12 05:08:50;;;;;;;2.20;1.73;;;12.50;80.20;;;;;;5040433;28;20979;-73
2022/04/12 05:11:18;;;;;;;2.20;2.00;;;12.50;80.10;;;;;;5052452;28;20441;-73
2022/04/12 05:13:46;;;;;;;2.40;2.20;;;12.50;79.90;;;;;;5037859;28;20466;-73
2022/04/12 05:16:14;;;;;;;2.03;1.70;;;12.50;79.90;;;;;;5040788;28;20432;-73
2022/04/12 05:18:46;;;;;;;2.30;2.10;;;12.50;79.90;;;;;;5038846;28;20495;-73
2022/04/12 05:21:14;;;;;;;2.33;2.00;;;12.50;79.80;;;;;;5041061;28;20436;-74
2022/04/12 05:23:42;;;;;;;2.10;1.90;;;12.50;79.60;;;;;;5042538;28;20472;-73
2022/04/12 05:26:11;;;;;;;2.20;2.00;;;12.50;79.80;;;;;;5048185;28;20466;-73
2022/04/12 05:28:45;;;;;;;2.50;2.30;;;12.50;79.80;;;;;;5049576;28;20434;-73
2022/04/12 05:31:14;;;;;;;2.20;2.00;;;12.50;80.20;;;;;;5036266;28;20853;-74
2022/04/12 05:33:43;;;;;;;3.00;2.80;;;12.50;79.70;;;;;;5039394;28;20982;-73
2022/04/12 05:36:11;;;;;;;3.33;2.00;;;12.40;79.90;;;;;;5038704;28;20463;-74
2022/04/12 05:38:39;;;;;;;3.13;1.77;;;12.40;80.00;;;;;;5039610;28;20842;-73
2022/04/12 05:41:07;;;;;;;3.43;1.83;;;12.50;81.00;;;;;;5026115;28;20498;-73
2022/04/12 05:43:37;;;;;;;3.03;2.00;;;12.40;80.00;;;;;;5033781;28;20475;-73
2022/04/12 05:46:05;;;;;;;3.03;2.17;;;12.40;79.90;;;;;;5046471;28;20428;-73
2022/04/12 05:48:33;;;;;;;4.33;2.43;;;12.50;80.00;;;;;;5039665;28;21435;-73
2022/04/12 05:51:01;;;;;;;2.70;2.20;;;12.50;80.00;;;;;;5033700;28;20404;-73
2022/04/12 05:53:29;;;;;;;3.17;1.50;;;12.40;80.10;;;;;;5031349;28;20889;-73
2022/04/12 05:55:58;;;;;;;2.20;2.00;;;12.40;80.20;;;;;;5047859;28;20514;-73
2022/04/12 05:58:26;;;;;;;2.60;2.30;;;12.50;80.30;;;;;;5043520;28;20440;-72
2022/04/12 06:00:55;;;;;;;3.10;2.43;;;12.40;80.00;;;;;;5040384;28;20478;-75
2022/04/12 06:03:23;;;;;;;3.67;2.83;;;12.40;80.10;;;;;;5041571;28;20463;-73
2022/04/12 06:05:53;;;;;;;3.10;2.23;;;12.40;79.90;;;;;;5049295;28;20475;-73
2022/04/12 06:08:21;;;;;;;2.63;2.27;;;12.40;80.20;;;;;;5036529;28;20484;-72
2022/04/12 06:10:49;;;;;;;3.50;2.27;;;12.40;80.30;;;;;;5027662;28;20470;-73
2022/04/12 06:13:18;;;;;;;2.37;2.17;;;12.40;80.20;;;;;;5037963;28;20456;-73
2022/04/12 06:15:46;;;;;;;2.23;2.03;;;12.40;80.40;;;;;;5035804;28;20832;-73
2022/04/12 06:18:16;;;;;;;2.80;1.93;;;12.40;80.20;;;;;;5034401;28;20490;-74
2022/04/12 06:20:44;;;;;;;3.60;2.80;;;12.40;80.50;;;;;;5036880;28;20464;-73
2022/04/12 06:23:12;;;;;;;2.67;2.47;;;12.40;80.20;;;;;;5031482;28;20471;-73
2022/04/12 06:25:40;;;;;;;3.10;2.80;;;12.40;80.00;;;;;;5036238;28;21000;-73
2022/04/12 06:28:08;;;;;;;2.37;2.07;;;12.40;80.20;;;;;;5046842;28;20427;-73
2022/04/12 06:30:36;;;;;;;2.40;2.20;;;12.40;80.60;;;;;;5034684;28;20463;-73
2022/04/12 06:33:04;;;;;;;3.20;2.90;;;12.30;80.40;;;;;;5016112;28;20878;-74
2022/04/12 06:35:34;;;;;;;2.33;2.13;;;12.40;80.60;;;;;;5012321;28;20591;-73
2022/04/12 06:38:04;;;;;;;2.77;2.57;;;12.40;80.60;;;;;;5015601;28;20436;-74
2022/04/12 06:40:34;;;;;;;2.70;2.50;;;12.30;80.40;;;;;;5024558;28;20479;-73
2022/04/12 06:43:03;;;;;;;2.70;2.50;;;12.30;80.50;;;;;;5046409;28;20459;-73
2022/04/12 06:45:33;;;;;;;2.53;2.33;;;12.30;80.50;;;;;;5034129;28;21222;-74
2022/04/12 06:48:02;;;;;;;2.60;2.23;;;12.40;80.60;;;;;;5040239;28;20450;-72
2022/04/12 06:50:30;;;;;;;2.90;2.60;;;12.30;80.90;;;;;;5049852;28;20474;-74
2022/04/12 06:53:00;;;;;;;2.53;2.33;;;12.40;80.90;;;;;;5025697;28;20449;-74
2022/04/12 06:55:28;;;;;;;2.97;2.13;;;12.40;80.70;;;;;;5021095;28;20476;-73
2022/04/12 06:57:57;;;;;;;3.37;3.07;;;12.40;81.00;;;;;;5032472;28;20482;-73
2022/04/12 07:00:26;;;;;;;3.00;2.17;;;12.40;80.90;;;;;;5045435;28;20988;-73
2022/04/12 07:02:54;;;;;;;2.30;2.00;;;12.40;81.00;;;;;;5035835;28;20486;-73
2022/04/12 07:05:22;;;;;;;2.30;2.10;;;12.40;81.40;;;;;;5041799;28;21020;-73
2022/04/12 07:07:51;;;;;;;2.00;1.80;;;12.40;81.30;;;;;;5041572;28;20475;-71
2022/04/12 07:10:20;;;;;;;1.80;1.60;;;12.40;81.30;;;;;;5036219;28;20468;-73
2022/04/12 07:12:53;;;;;;;2.40;1.70;;;12.40;81.30;;;;;;5039708;28;20472;-74
2022/04/12 07:15:22;;;;;;;2.13;1.83;;;12.50;81.30;;;;;;5047980;28;20514;-73
2022/04/12 07:17:50;;;;;;;1.90;1.77;;;12.50;81.30;;;;;;5032068;28;20477;-73
2022/04/12 07:20:18;;;;;;;1.90;1.70;;;12.50;81.30;;;;;;5033849;28;20917;-74
2022/04/12 07:22:46;;;;;;;2.00;1.70;;;12.50;81.30;;;;;;5040255;28;20431;-73
2022/04/12 07:25:14;;;;;;;2.20;2.00;;;12.50;81.30;;;;;;5036631;28;20999;-72
2022/04/12 07:27:44;;;;;;;2.70;1.97;;;12.50;81.30;;;;;;5041779;28;20441;-73
2022/04/12 07:30:12;;;;;;;1.53;1.43;;;12.50;81.20;;;;;;5044444;28;20475;-73
2022/04/12 07:32:58;;;;;;;4.43;1.90;;;12.50;81.10;;;;;;5035292;28;20860;-73
2022/04/12 07:35:27;;;;;;;2.20;1.67;;;12.60;81.10;;;;;;5045882;28;20854;-73
2022/04/12 07:37:55;;;;;;;1.67;1.57;;;12.60;81.10;;;;;;5035232;28;20476;-74
2022/04/12 07:40:23;;;;;;;2.00;1.70;;;12.60;81.10;;;;;;5022844;28;20878;-74
2022/04/12 07:42:53;;;;;;;2.00;1.67;;;12.60;81.20;;;;;;5041738;28;20439;-74
2022/04/12 07:45:21;;;;;;;1.87;1.77;;;12.60;81.20;;;;;;5040935;28;20985;-73
2022/04/12 07:47:49;;;;;;;2.73;2.10;;;12.60;81.50;;;;;;5035618;28;20512;-74
2022/04/12 07:50:17;;;;;;;3.17;2.30;;;12.60;81.40;;;;;;5032608;28;21130;-73
2022/04/12 07:52:45;;;;;;;3.87;1.97;;;12.70;81.90;;;;;;5036745;28;20505;-73
2022/04/12 07:55:13;;;;;;;2.87;2.37;;;12.70;81.50;;;;;;5030963;28;20472;-73
2022/04/12 07:57:41;;;;;;;2.30;1.97;;;12.70;81.40;;;;;;5023265;28;20498;-74
2022/04/12 08:00:12;;;;;;;2.03;1.83;;;12.70;81.40;;;;;;5043621;28;20475;-73
2022/04/12 08:02:40;;;;;;;2.47;2.27;;;12.80;81.80;;;;;;5044894;28;20442;-74
2022/04/12 08:05:08;;;;;;;2.10;2.00;;;12.80;81.30;;;;;;5042024;28;20465;-73
2022/04/12 08:07:37;;;;;;;2.97;2.00;;;12.80;81.20;;;;;;5035532;28;20418;-73
2022/04/12 08:10:06;;;;;;;3.20;1.80;;;12.80;81.20;;;;;;5017101;28;20469;-73
2022/04/12 08:12:34;;;;;;;3.03;1.60;;;12.80;81.30;;;;;;5015736;28;20484;-73
2022/04/12 08:15:05;;;;;;;1.77;1.67;;;12.80;81.50;;;;;;5014936;28;20477;-73
2022/04/12 08:17:35;;;;;;;2.60;1.83;;;12.80;81.60;;;;;;5022527;28;20812;-74
2022/04/12 08:20:05;;;;;;;2.03;1.77;;;12.80;81.70;;;;;;5038740;28;20477;-74
2022/04/12 08:22:34;;;;;;;1.63;1.53;;;12.80;81.80;;;;;;5040814;28;20429;-73
2022/04/12 08:25:16;;;;;;;2.07;1.87;;;12.80;81.90;;;;;;5038609;28;20493;-75
2022/04/12 08:27:44;;;;;;;2.40;2.03;;;12.80;82.00;;;;;;5045719;28;20913;-73
2022/04/12 08:30:13;;;;;;;2.97;2.20;;;12.80;82.10;;;;;;5051039;28;20462;-74
2022/04/12 08:32:43;;;;;;;1.60;1.50;;;12.80;83.30;;;;;;5034983;28;20520;-72
2022/04/12 08:35:11;;;;;;;1.90;1.73;;;12.80;82.10;;;;;;5038572;28;20478;-72
2022/04/12 08:37:39;;;;;;;2.40;1.80;;;12.80;82.10;;;;;;5039546;28;20436;-74
2022/04/12 08:40:09;;;;;;;1.80;1.50;;;12.80;82.20;;;;;;5037649;28;20981;-72
2022/04/12 08:42:38;;;;;;;2.27;1.93;;;12.80;82.10;;;;;;5038645;28;20439;-67
2022/04/12 08:45:07;;;;;;;1.97;1.80;;;12.80;82.20;;;;;;5040864;28;20557;-67
2022/04/12 08:47:36;;;;;;;2.17;1.70;;;12.80;82.20;;;;;;5041255;28;20435;-67
2022/04/12 08:50:07;;;;;;;3.20;2.03;;;12.80;82.30;;;;;;5045453;28;20468;-67
2022/04/12 08:52:37;;;;;;;4.63;2.30;;;12.80;82.40;;;;;;5033098;28;20926;-67
2022/04/12 08:55:07;;;;;;;2.27;1.97;;;12.80;82.60;;;;;;5042774;28;20868;-67
2022/04/12 08:57:35;;;;;;;2.50;1.57;;;12.80;82.60;;;;;;5034496;28;20480;-67
2022/04/12 09:00:05;;;;;;;1.80;1.70;;;12.80;82.60;;;;;;5033896;28;20464;-67
2022/04/12 09:02:34;;;;;;;1.80;1.70;;;12.80;82.60;;;;;;5023763;28;20446;-68
2022/04/12 09:05:02;;;;;;;3.40;1.90;;;12.80;82.70;;;;;;5033437;28;20550;-67
2022/04/12 09:07:31;;;;;;;1.73;1.60;;;12.80;82.80;;;;;;5051808;28;20482;-67
2022/04/12 09:10:08;;;;;;;1.77;1.67;;;12.80;82.90;;;;;;5046466;28;20901;-66
2022/04/12 09:12:37;;;;;;;1.90;1.77;;;12.80;82.90;;;;;;5025127;28;20501;-67
2022/04/12 09:15:11;;;;;;;1.90;1.63;;;12.80;82.90;;;;;;5031208;28;20875;-67
2022/04/12 09:17:44;;;;;;;1.70;1.60;;;12.80;83.10;;;;;;5034030;28;20423;-67
2022/04/12 09:20:16;;;;;;;3.57;1.67;;;12.80;83.10;;;;;;5035761;28;20523;-67
2022/04/12 09:22:47;;;;;;;2.00;1.80;;;12.80;83.20;;;;;;5038400;28;20430;-67
2022/04/12 09:25:16;;;;;;;2.87;1.93;;;12.80;83.20;;;;;;5034377;28;20531;-67
2022/04/12 09:27:49;;;;;;;2.60;2.00;;;12.80;83.40;;;;;;5039900;28;20454;-65
2022/04/12 09:30:18;;;;;;;2.30;2.10;;;12.80;83.40;;;;;;5040322;28;20860;-66
2022/04/12 09:32:48;;;;;;;2.10;1.70;;;12.80;83.40;;;;;;5042045;28;20473;-66
2022/04/12 09:35:17;;;;;;;4.33;1.93;;;12.80;83.50;;;;;;5041633;28;20476;-66
2022/04/12 09:37:47;;;;;;;2.00;1.80;;;12.80;83.60;;;;;;5044173;28;20435;-66
2022/04/12 09:40:16;;;;;;;2.13;1.93;;;12.80;83.60;;;;;;5038381;28;20526;-66
2022/04/12 09:42:48;;;;;;;2.93;1.97;;;12.80;83.70;;;;;;5048314;28;20451;-67
2022/04/12 09:45:17;;;;;;;1.63;1.50;;;12.80;83.70;;;;;;5040433;28;20476;-65
2022/04/12 09:47:47;;;;;;;1.70;1.60;;;12.80;83.80;;;;;;5021897;28;20444;-66
2022/04/12 09:50:35;;;;;;;2.90;2.00;;;12.80;83.90;;;;;;5043688;28;20911;-66
2022/04/12 09:53:11;;;;;;;4.97;2.63;;;12.80;83.90;;;;;;5036713;28;20452;-64
2022/04/12 09:55:41;;;;;;;2.43;1.73;;;12.80;84.00;;;;;;5044104;28;20505;-66
2022/04/12 09:58:29;;;;;;;2.40;2.10;;;12.90;84.20;;;;;;5048247;28;20471;-66
2022/04/12 10:00:57;;;;;;;2.37;2.10;;;12.90;84.20;;;;;;5043212;28;21063;-67
2022/04/12 10:03:27;;;;;;;2.03;1.83;;;12.80;84.20;;;;;;5028667;28;20474;-67
2022/04/12 10:05:56;;;;;;;2.10;1.83;;;12.80;84.20;;;;;;5046975;28;20477;-67
2022/04/12 10:08:27;;;;;;;1.73;1.63;;;12.80;84.20;;;;;;5034788;28;20436;-66
2022/04/12 10:10:55;;;;;;;2.83;1.90;;;12.90;84.50;;;;;;5042541;28;20506;-66
2022/04/12 10:13:24;;;;;;;1.67;1.57;;;12.80;84.50;;;;;;5044513;28;20506;-67
2022/04/12 10:15:53;;;;;;;2.40;2.20;;;12.90;84.50;;;;;;5031572;28;20986;-67
2022/04/12 10:18:21;;;;;;;2.27;1.83;;;12.80;84.60;;;;;;5027574;28;20443;-67
2022/04/12 10:20:49;;;;;;;2.37;2.13;;;12.80;84.70;;;;;;5038870;28;20461;-65
2022/04/12 10:23:20;;;;;;;2.50;1.80;;;12.90;84.80;;;;;;5029951;28;20478;-66
2022/04/12 10:25:51;;;;;;;2.10;1.90;;;12.90;84.70;;;;;;5049441;28;20468;-66
2022/04/12 10:28:21;;;;;;;2.63;2.23;;;12.90;84.70;;;;;;5050103;28;20431;-66
2022/04/12 10:30:50;;;;;;;1.60;1.50;;;12.90;84.60;;;;;;5050142;28;20508;-66
2022/04/12 10:33:24;;;;;;;2.57;1.70;;;12.90;84.50;;;;;;5031970;28;20551;-66
2022/04/12 10:35:59;;;;;;;1.60;1.50;;;12.90;84.60;;;;;;5032571;28;20477;-66
2022/04/12 10:38:38;;;;;;;3.27;2.20;;;12.90;84.50;;;;;;5031010;28;20453;-67
2022/04/12 10:41:15;;;;;;;1.57;1.47;;;12.90;84.30;;;;;;5043645;28;20487;-66
2022/04/12 10:43:43;;;;;;;1.87;1.67;;;12.90;84.30;;;;;;5064023;28;20967;-65
2022/04/12 10:46:13;;;;;;;1.57;1.47;;;12.90;84.10;;;;;;5033056;28;20460;-64
2022/04/12 10:48:41;;;;;;;3.53;1.60;;;12.90;84.00;;;;;;5037262;28;20528;-66
2022/04/12 10:51:10;;;;;;;2.60;1.70;;;12.90;83.90;;;;;;5043958;28;20434;-67
2022/04/12 10:53:55;;;;;;;1.63;1.30;;;12.90;83.90;;;;;;5043095;28;20973;-67
2022/04/12 10:56:26;;;;;;;2.00;1.70;;;12.90;83.90;;;;;;5032773;28;20432;-66
2022/04/12 10:58:54;;;;;;;1.50;1.20;;;12.90;84.00;;;;;;5038215;28;20436;-67
2022/04/12 11:01:30;;;;;;;1.60;1.50;;;12.90;83.90;;;;;;5042422;28;20445;-67
2022/04/12 11:04:01;;;;;;;1.67;1.50;;;12.90;83.90;;;;;;5044405;28;20967;-65
2022/04/12 11:06:30;;;;;;;1.97;1.60;;;12.90;83.80;;;;;;5038868;28;20481;-66
2022/04/12 11:09:10;;;;;;;2.20;1.43;;;12.90;84.00;;;;;;5031431;28;20450;-66
2022/04/12 11:11:41;;;;;;;1.50;1.33;;;12.90;83.90;;;;;;5043005;28;20475;-65
2022/04/12 11:14:24;;;;;;;2.87;1.77;;;12.90;83.80;;;;;;5048205;28;20468;-66
2022/04/12 11:16:56;;;;;;;1.67;1.33;;;13.00;83.90;;;;;;5041127;28;20440;-65
2022/04/12 11:19:25;;;;;;;1.60;1.50;;;13.00;84.00;;;;;;5042705;28;20469;-65
2022/04/12 11:22:01;;;;;;;1.40;1.30;;;13.00;83.90;;;;;;5024502;28;20431;-67
2022/04/12 11:24:29;;;;;;;1.80;1.60;;;13.00;84.00;;;;;;5042901;28;20472;-67
2022/04/12 11:27:07;;;;;;;2.80;1.50;;;13.00;84.00;;;;;;5050691;28;20451;-66
2022/04/12 11:29:43;;;;;;;3.37;1.37;;;13.00;84.00;;;;;;5033314;28;20877;-66
2022/04/12 11:32:12;;;;;;;2.70;1.43;;;13.00;84.10;;;;;;5059262;28;20446;-66
2022/04/12 11:34:41;;;;;;;1.23;1.13;;;13.00;84.00;;;;;;5032366;28;21016;-66
2022/04/12 11:37:11;;;;;;;2.00;1.13;;;13.00;84.10;;;;;;5049998;28;20979;-66
2022/04/12 11:39:41;;;;;;;2.77;1.50;;;13.00;84.10;;;;;;5044446;28;20468;-65
2022/04/12 11:42:13;;;;;;;1.37;1.23;;;13.00;84.00;;;;;;5031080;28;20436;-66
2022/04/12 11:44:50;;;;;;;1.60;1.50;;;13.00;84.00;;;;;;5027390;28;20495;-66
2022/04/12 11:47:19;;;;;;;1.87;1.23;;;13.00;84.10;;;;;;5028677;28;20486;-66
2022/04/12 11:49:47;;;;;;;1.80;1.37;;;13.10;84.10;;;;;;5036248;28;20486;-67
2022/04/12 11:52:16;;;;;;;1.50;1.40;;;13.10;84.20;;;;;;5033801;28;20452;-66
2022/04/12 11:54:46;;;;;;;1.60;1.50;;;13.10;84.20;;;;;;5040698;28;20886;-66
2022/04/12 11:57:19;;;;;;;2.10;1.50;;;13.10;84.10;;;;;;5031468;28;20443;-65
2022/04/12 11:59:49;;;;;;;3.23;1.10;;;13.10;84.20;;;;;;5041988;28;20464;-67
2022/04/12 12:02:20;;;;;;;1.20;1.10;;;13.10;84.20;;;;;;5049419;28;20448;-66
2022/04/12 12:04:50;;;;;;;1.50;1.40;;;13.10;84.30;;;;;;5036694;28;20464;-66
2022/04/12 12:07:19;;;;;;;2.27;1.70;;;13.10;84.30;;;;;;5036761;28;20462;-65
2022/04/12 12:09:56;;;;;;;2.13;1.37;;;13.10;84.30;;;;;;5062394;28;21061;-65
2022/04/12 12:12:33;;;;;;;1.53;1.43;;;13.10;84.40;;;;;;5040842;28;20977;-67
2022/04/12 12:15:18;;;;;;;2.00;1.77;;;13.10;84.40;;;;;;5049077;28;21009;-66
2022/04/12 12:17:48;;;;;;;1.50;1.40;;;13.10;84.50;;;;;;5017254;28;20441;-66
2022/04/12 12:20:18;;;;;;;1.10;1.00;;;13.20;84.50;;;;;;5032406;28;20555;-64
2022/04/12 12:22:48;;;;;;;1.63;1.23;;;13.10;84.40;;;;;;5019706;28;20804;-68
2022/04/12 12:25:19;;;;;;;1.40;1.30;;;13.10;84.50;;;;;;5010643;28;20465;-66
2022/04/12 12:27:53;;;;;;;1.27;1.17;;;13.10;84.60;;;;;;5030043;28;20464;-66
2022/04/12 12:30:24;;;;;;;1.63;1.03;;;13.10;84.70;;;;;;5029610;28;20820;-67
2022/04/12 12:32:54;;;;;;;1.67;1.57;;;13.10;84.60;;;;;;5033727;28;20533;-65
2022/04/12 12:35:25;;;;;;;3.50;1.43;;;13.20;84.60;;;;;;5040631;28;20960;-65
2022/04/12 12:38:02;;;;;;;1.90;1.13;;;13.20;84.70;;;;;;5031365;28;20440;-67
2022/04/12 12:40:31;;;;;;;1.53;1.43;;;13.20;84.70;;;;;;5010976;28;20548;-65
2022/04/12 12:43:03;;;;;;;1.80;1.70;;;13.20;84.70;;;;;;5034672;28;20506;-66
2022/04/12 12:45:31;;;;;;;1.37;1.27;;;13.20;84.70;;;;;;5044560;28;21001;-66
2022/04/12 12:47:59;;;;;;;1.10;1.00;;;13.30;84.80;;;;;;5039458;28;20499;-66
2022/04/12 12:50:31;;;;;;;1.53;1.40;;;13.20;84.70;;;;;;5039437;28;20470;-65
2022/04/12 12:53:00;;;;;;;2.90;1.37;;;13.20;84.70;;;;;;5033873;28;21001;-66
2022/04/12 12:55:31;;;;;;;3.07;1.27;;;13.30;84.90;;;;;;5033520;28;20522;-66
2022/04/12 12:58:06;;;;;;;1.23;1.13;;;13.30;85.00;;;;;;5034429;28;20426;-66
2022/04/12 13:00:34;;;;;;;1.50;1.37;;;13.30;85.00;;;;;;5043351;28;20472;-66
2022/04/12 13:03:05;;;;;;;1.13;1.00;;;13.30;85.10;;;;;;5036827;28;20486;-67